createdAt,value
2022-11-23T00:01:54.729Z,86.43
2022-11-23T00:04:25.002Z,80.80
2022-11-23T00:06:53.568Z,82.23
2022-11-23T00:09:22.800Z,78.80
2022-11-23T00:11:51.330Z,80.57
2022-11-23T00:14:20.061Z,79.47
2022-11-23T00:16:48.683Z,83.43
2022-11-23T00:19:18.581Z,80.10
2022-11-23T00:21:47.315Z,78.27
2022-11-23T00:24:15.841Z,82.60
2022-11-23T00:26:44.324Z,81.40
2022-11-23T00:29:13.214Z,77.83
2022-11-23T00:31:41.702Z,81.00
2022-11-23T00:34:10.311Z,82.40
2022-11-23T00:36:40.203Z,79.60
2022-11-23T00:39:09.362Z,78.60
2022-11-23T00:41:38.242Z,77.93
2022-11-23T00:44:07.967Z,81.77
2022-11-23T00:46:37.334Z,74.83
2022-11-23T00:49:06.939Z,79.30
2022-11-23T00:51:37.818Z,80.77
2022-11-23T00:54:07.831Z,84.93
2022-11-23T00:56:37.295Z,78.13
2022-11-23T00:59:07.024Z,84.37
2022-11-23T01:01:37.372Z,83.83
2022-11-23T01:04:09.955Z,82.73
2022-11-23T01:06:40.672Z,74.80
2022-11-23T01:09:14.842Z,76.60
2022-11-23T01:11:43.708Z,88.23
2022-11-23T01:14:12.358Z,84.40
2022-11-23T01:16:43.185Z,79.30
2022-11-23T01:19:14.381Z,81.37
2022-11-23T01:21:43.373Z,77.93
2022-11-23T01:24:15.714Z,80.83
2022-11-23T01:26:45.077Z,74.60
2022-11-23T01:29:14.130Z,73.37
2022-11-23T01:31:46.484Z,78.83
2022-11-23T01:34:17.146Z,81.27
2022-11-23T01:36:46.075Z,77.70
2022-11-23T01:39:16.225Z,77.73
2022-11-23T01:41:46.451Z,69.43
2022-11-23T01:44:27.080Z,71.53
2022-11-23T01:46:58.124Z,74.03
2022-11-23T01:49:28.530Z,74.53
2022-11-23T01:52:00.828Z,70.87
2022-11-23T01:54:34.125Z,72.13
2022-11-23T01:57:07.509Z,71.83
2022-11-23T01:59:36.994Z,76.43
2022-11-23T02:02:08.018Z,68.60
2022-11-23T02:04:43.064Z,72.00
2022-11-23T02:07:16.118Z,74.93
2022-11-23T02:09:48.808Z,74.40
2022-11-23T02:12:17.758Z,77.67
2022-11-23T02:14:47.240Z,76.17
2022-11-23T02:17:16.104Z,71.03
2022-11-23T02:19:55.377Z,76.40
2022-11-23T02:22:34.544Z,74.87
2022-11-23T02:25:10.134Z,79.77
2022-11-23T02:27:45.462Z,78.80
2022-11-23T02:30:15.703Z,79.20
2022-11-23T02:32:45.117Z,81.60
2022-11-23T02:35:14.578Z,77.50
2022-11-23T02:37:45.195Z,78.40
2022-11-23T02:40:27.274Z,84.10
2022-11-23T02:42:57.669Z,82.43
2022-11-23T02:45:34.836Z,81.40
2022-11-23T02:48:04.088Z,85.43
2022-11-23T02:50:33.001Z,86.03
2022-11-23T02:53:02.348Z,87.70
2022-11-23T02:55:33.672Z,91.27
2022-11-23T02:58:05.566Z,84.87
2022-11-23T03:00:34.778Z,82.07
2022-11-23T03:03:04.195Z,85.30
2022-11-23T03:05:34.825Z,89.50
2022-11-23T03:08:07.208Z,87.57
2022-11-23T03:10:36.344Z,86.40
2022-11-23T03:13:06.593Z,88.40
2022-11-23T03:15:37.461Z,89.87
2022-11-23T03:18:07.643Z,90.00
2022-11-23T03:20:36.975Z,97.77
2022-11-23T03:23:06.515Z,94.63
2022-11-23T03:25:35.269Z,100.03
2022-11-23T03:28:07.685Z,98.13
2022-11-23T03:30:36.353Z,108.37
2022-11-23T03:33:07.122Z,102.00
2022-11-23T03:35:38.681Z,104.80
2022-11-23T03:38:20.540Z,109.83
2022-11-23T03:40:51.376Z,111.37
2022-11-23T03:43:26.861Z,113.10
2022-11-23T03:45:55.601Z,112.77
2022-11-23T03:48:24.887Z,118.97
2022-11-23T03:50:54.198Z,116.23
2022-11-23T03:53:22.811Z,118.63
2022-11-23T03:55:51.418Z,133.07
2022-11-23T03:58:20.222Z,129.50
2022-11-23T04:00:51.660Z,139.60
2022-11-23T04:03:20.467Z,135.00
2022-11-23T04:06:09.355Z,127.37
2022-11-23T04:09:02.748Z,143.33
2022-11-23T04:11:51.572Z,141.07
2022-11-23T04:14:21.268Z,146.53
2022-11-23T04:16:51.936Z,153.30
2022-11-23T04:19:20.682Z,131.03
2022-11-23T04:21:49.660Z,144.73
2022-11-23T04:24:18.414Z,156.37
2022-11-23T04:26:48.418Z,153.77
2022-11-23T04:29:17.058Z,152.23
2022-11-23T04:31:51.808Z,167.00
2022-11-23T04:34:21.441Z,166.30
2022-11-23T04:36:52.104Z,163.73
2022-11-23T04:39:26.038Z,175.93
2022-11-23T04:42:20.704Z,158.43
2022-11-23T04:44:54.533Z,145.13
2022-11-23T04:47:24.879Z,161.90
2022-11-23T04:49:54.505Z,177.23
2022-11-23T04:52:23.238Z,161.70
2022-11-23T04:54:52.857Z,177.30
2022-11-23T04:57:21.775Z,161.57
2022-11-23T04:59:53.009Z,183.60
2022-11-23T05:02:21.761Z,179.80
2022-11-23T05:05:12.070Z,154.27
2022-11-23T05:07:40.792Z,183.00
2022-11-23T05:10:10.577Z,190.40
2022-11-23T05:12:39.467Z,180.90
2022-11-23T05:15:12.006Z,196.83
2022-11-23T05:17:40.763Z,168.90
2022-11-23T05:20:18.060Z,186.90
2022-11-23T05:22:50.166Z,165.80
2022-11-23T05:25:22.885Z,186.57
2022-11-23T05:28:03.682Z,177.03
2022-11-23T05:30:40.452Z,170.60
2022-11-23T05:33:12.970Z,181.53
2022-11-23T05:35:44.514Z,188.73
2022-11-23T05:38:13.582Z,218.30
2022-11-23T05:40:42.839Z,194.50
2022-11-23T05:43:11.827Z,213.03
2022-11-23T05:45:40.482Z,217.37
2022-11-23T05:48:11.442Z,245.87
2022-11-23T05:50:54.190Z,218.00
2022-11-23T05:53:43.005Z,230.53
2022-11-23T05:56:19.961Z,219.70
2022-11-23T05:59:08.869Z,208.60
2022-11-23T06:01:39.957Z,239.70
2022-11-23T06:04:10.793Z,226.23
2022-11-23T06:06:45.569Z,203.60
2022-11-23T06:09:14.522Z,192.77
2022-11-23T06:11:48.286Z,198.93
2022-11-23T06:14:20.767Z,214.73
2022-11-23T06:16:50.059Z,228.40
2022-11-23T06:19:32.918Z,204.60
2022-11-23T06:22:04.257Z,199.83
2022-11-23T06:24:36.483Z,203.37
2022-11-23T06:27:31.120Z,205.47
2022-11-23T06:30:00.865Z,186.73
2022-11-23T06:32:32.409Z,194.13
2022-11-23T06:35:02.763Z,195.57
2022-11-23T06:37:36.622Z,188.97
2022-11-23T06:40:05.943Z,173.90
2022-11-23T06:42:39.992Z,181.03
2022-11-23T06:45:16.519Z,206.63
2022-11-23T06:47:45.527Z,190.17
2022-11-23T06:50:14.641Z,178.43
2022-11-23T06:52:47.875Z,181.20
2022-11-23T06:55:16.809Z,194.57
2022-11-23T06:57:45.877Z,201.67
2022-11-23T07:00:16.045Z,198.10
2022-11-23T07:02:52.344Z,192.17
2022-11-23T07:05:24.265Z,210.50
2022-11-23T07:07:54.376Z,195.33
2022-11-23T07:10:28.145Z,197.03
2022-11-23T07:13:05.373Z,189.17
2022-11-23T07:15:35.149Z,195.80
2022-11-23T07:18:03.971Z,178.77
2022-11-23T07:20:33.704Z,204.13
2022-11-23T07:23:04.584Z,195.33
2022-11-23T07:25:35.137Z,180.63
2022-11-23T07:28:06.341Z,182.10
2022-11-23T07:30:36.170Z,182.33
2022-11-23T07:33:08.425Z,192.13
2022-11-23T07:35:39.539Z,203.47
2022-11-23T07:38:10.374Z,182.10
2022-11-23T07:40:40.854Z,188.47
2022-11-23T07:43:17.258Z,185.27
2022-11-23T07:45:50.431Z,193.47
2022-11-23T07:48:19.249Z,175.63
2022-11-23T07:50:47.820Z,187.80
2022-11-23T07:53:18.164Z,180.83
2022-11-23T07:55:46.874Z,167.10
2022-11-23T07:58:15.448Z,167.47
2022-11-23T08:00:44.370Z,185.53
2022-11-23T08:03:30.889Z,178.20
2022-11-23T08:06:00.129Z,176.40
2022-11-23T08:08:30.170Z,170.13
2022-11-23T08:10:58.649Z,187.10
2022-11-23T08:13:27.480Z,161.40
2022-11-23T08:15:56.311Z,186.07
2022-11-23T08:18:25.387Z,188.20
2022-11-23T08:20:54.113Z,187.53
2022-11-23T08:23:23.355Z,199.93
2022-11-23T08:25:53.393Z,186.63
2022-11-23T08:28:22.604Z,201.33
2022-11-23T08:30:51.386Z,196.07
2022-11-23T08:33:19.977Z,189.37
2022-11-23T08:35:48.662Z,210.37
2022-11-23T08:38:17.628Z,182.87
2022-11-23T08:40:46.176Z,185.50
2022-11-23T08:43:16.162Z,179.20
2022-11-23T08:45:45.092Z,171.43
2022-11-23T08:48:13.900Z,177.80
2022-11-23T08:50:44.454Z,186.07
2022-11-23T08:53:13.254Z,190.23
2022-11-23T08:55:42.407Z,172.30
2022-11-23T08:58:13.608Z,166.13
2022-11-23T09:00:43.871Z,170.20
2022-11-23T09:03:12.497Z,174.83
2022-11-23T09:05:41.102Z,180.23
2022-11-23T09:08:10.081Z,157.97
2022-11-23T09:10:39.287Z,171.17
2022-11-23T09:13:07.921Z,156.53
2022-11-23T09:15:36.922Z,171.83
2022-11-23T09:18:07.057Z,168.10
2022-11-23T09:20:36.209Z,163.30
2022-11-23T09:23:07.956Z,163.93
2022-11-23T09:25:42.877Z,151.40
2022-11-23T09:28:12.681Z,163.90
2022-11-23T09:30:41.671Z,162.77
2022-11-23T09:33:11.978Z,165.47
2022-11-23T09:35:43.739Z,153.57
2022-11-23T09:38:13.222Z,144.80
2022-11-23T09:40:42.745Z,143.57
2022-11-23T09:43:46.804Z,139.00
2022-11-23T09:46:25.754Z,148.10
2022-11-23T09:49:14.528Z,145.23
2022-11-23T09:51:44.364Z,149.97
2022-11-23T09:54:24.918Z,149.50
2022-11-23T09:57:01.560Z,149.07
2022-11-23T09:59:41.421Z,149.77
2022-11-23T10:02:20.916Z,141.20
2022-11-23T10:04:53.081Z,146.97
2022-11-23T10:07:33.252Z,131.23
2022-11-23T10:10:15.158Z,136.40
2022-11-23T10:12:53.824Z,139.47
2022-11-23T10:15:29.134Z,137.17
2022-11-23T10:18:08.291Z,132.10
2022-11-23T10:20:57.338Z,131.80
2022-11-23T10:23:39.088Z,135.53
2022-11-23T10:26:13.324Z,138.00
2022-11-23T10:28:42.184Z,137.33
2022-11-23T10:31:15.794Z,134.87
2022-11-23T10:33:53.391Z,119.47
2022-11-23T10:36:23.533Z,129.50
2022-11-23T10:38:58.704Z,137.07
2022-11-23T10:41:27.639Z,120.63
2022-11-23T10:44:05.537Z,120.13
2022-11-23T10:46:41.210Z,119.83
2022-11-23T10:49:20.856Z,115.90
2022-11-23T10:51:59.819Z,119.10
2022-11-23T10:54:34.911Z,118.27
2022-11-23T10:57:22.394Z,121.60
2022-11-23T10:59:59.468Z,117.10
2022-11-23T11:02:29.530Z,123.47
2022-11-23T11:05:40.159Z,117.33
2022-11-23T11:08:17.267Z,120.33
2022-11-23T11:10:50.140Z,118.17
2022-11-23T11:13:27.411Z,112.80
2022-11-23T11:15:58.295Z,120.93
2022-11-23T11:18:30.357Z,115.93
2022-11-23T11:21:06.081Z,103.93
2022-11-23T11:23:40.579Z,103.00
2022-11-23T11:26:20.872Z,109.87
2022-11-23T11:28:53.110Z,98.93
2022-11-23T11:31:45.271Z,108.57
2022-11-23T11:34:24.945Z,105.37
2022-11-23T11:37:02.213Z,107.87
2022-11-23T11:39:42.344Z,102.93
2022-11-23T11:42:21.470Z,98.83
2022-11-23T11:44:54.509Z,101.80
2022-11-23T11:47:29.852Z,100.23
2022-11-23T11:50:02.386Z,100.47
2022-11-23T11:52:36.882Z,108.90
2022-11-23T11:55:13.929Z,107.07
2022-11-23T11:57:48.676Z,101.67
2022-11-23T12:00:20.065Z,99.93
2022-11-23T12:03:00.902Z,96.90
2022-11-23T12:05:41.451Z,89.00
2022-11-23T12:08:14.027Z,108.57
2022-11-23T12:10:48.788Z,98.13
2022-11-23T12:13:19.894Z,100.47
2022-11-23T12:15:52.623Z,98.13
2022-11-23T12:18:33.075Z,94.13
2022-11-23T12:21:05.225Z,91.17
2022-11-23T12:23:50.111Z,90.70
2022-11-23T12:26:29.895Z,85.13
2022-11-23T12:29:13.448Z,83.13
2022-11-23T12:31:46.570Z,86.37
2022-11-23T12:34:33.328Z,85.00
2022-11-23T12:37:15.035Z,80.97
2022-11-23T12:40:09.588Z,84.93
2022-11-23T12:42:45.768Z,92.30
2022-11-23T12:45:41.037Z,80.10
2022-11-23T12:48:38.969Z,77.90
2022-11-23T12:51:19.281Z,80.83
2022-11-23T12:53:59.058Z,79.23
2022-11-23T12:56:46.652Z,94.37
2022-11-23T12:59:16.515Z,93.40
2022-11-23T13:01:50.338Z,83.53
2022-11-23T13:04:53.996Z,80.77
2022-11-23T13:07:50.096Z,75.50
2022-11-23T13:10:45.953Z,74.40
2022-11-23T13:13:30.863Z,75.70
2022-11-23T13:16:27.207Z,88.63
2022-11-23T13:19:07.498Z,97.47
2022-11-23T13:21:39.881Z,90.30
2022-11-23T13:24:27.817Z,91.53
2022-11-23T13:27:31.700Z,94.77
2022-11-23T13:30:11.143Z,100.23
2022-11-23T13:33:00.719Z,99.53
2022-11-23T13:35:50.458Z,98.57
2022-11-23T13:38:43.860Z,105.00
2022-11-23T13:41:55.337Z,96.43
2022-11-23T13:44:27.599Z,103.40
2022-11-23T13:47:08.623Z,123.03
2022-11-23T13:49:43.041Z,99.80
2022-11-23T13:52:37.037Z,100.57
2022-11-23T13:55:21.164Z,98.63
2022-11-23T13:58:19.847Z,101.27
2022-11-23T14:00:51.176Z,92.60
2022-11-23T14:04:00.528Z,92.27
2022-11-23T14:06:42.897Z,84.50
2022-11-23T14:09:19.202Z,83.43
2022-11-23T14:12:07.174Z,81.33
2022-11-23T14:14:57.740Z,83.53
2022-11-23T14:17:45.246Z,87.30
2022-11-23T14:20:28.858Z,93.80
2022-11-23T14:23:13.871Z,98.30
2022-11-23T14:25:53.884Z,99.63
2022-11-23T14:28:41.172Z,89.37
2022-11-23T14:31:21.499Z,87.40
2022-11-23T14:33:57.048Z,89.17
2022-11-23T14:36:38.838Z,88.73
2022-11-23T14:39:40.565Z,101.63
2022-11-23T14:42:15.487Z,100.87
2022-11-23T14:44:46.121Z,85.20
2022-11-23T14:47:15.217Z,93.77
2022-11-23T14:49:52.157Z,90.50
2022-11-23T14:52:22.709Z,96.60
2022-11-23T14:54:52.604Z,89.87
2022-11-23T14:57:22.937Z,94.60
2022-11-23T14:59:56.829Z,90.57
2022-11-23T15:02:32.301Z,87.83
2022-11-23T15:05:08.708Z,88.30
2022-11-23T15:07:50.029Z,91.80
2022-11-23T15:10:29.620Z,95.50
2022-11-23T15:12:58.344Z,96.67
2022-11-23T15:15:32.224Z,96.83
2022-11-23T15:18:02.813Z,92.57
2022-11-23T15:20:33.941Z,93.53
2022-11-23T15:23:04.034Z,89.60
2022-11-23T15:25:33.454Z,95.03
2022-11-23T15:28:05.443Z,94.10
2022-11-23T15:30:37.394Z,90.53
2022-11-23T15:33:12.392Z,93.03
2022-11-23T15:35:42.179Z,87.60
2022-11-23T15:38:20.442Z,94.80
2022-11-23T15:40:52.619Z,87.63
2022-11-23T15:43:21.621Z,94.67
2022-11-23T15:46:06.894Z,87.10
2022-11-23T15:48:37.157Z,90.60
2022-11-23T15:51:09.469Z,95.40
2022-11-23T15:53:47.390Z,86.13
2022-11-23T15:56:22.791Z,86.30
2022-11-23T15:58:53.824Z,88.77
2022-11-23T16:01:24.308Z,86.37
2022-11-23T16:03:55.763Z,89.17
2022-11-23T16:06:32.530Z,81.17
2022-11-23T16:09:17.402Z,77.77
2022-11-23T16:11:53.621Z,79.53
2022-11-23T16:14:31.900Z,83.63
2022-11-23T16:17:18.729Z,77.13
2022-11-23T16:19:50.180Z,77.97
2022-11-23T16:22:30.428Z,72.03
2022-11-23T16:25:08.555Z,67.47
2022-11-23T16:27:38.298Z,78.57
2022-11-23T16:30:08.735Z,74.43
2022-11-23T16:32:38.888Z,77.23
2022-11-23T16:35:18.117Z,68.90
2022-11-23T16:37:47.254Z,75.47
2022-11-23T16:40:16.938Z,76.10
2022-11-23T16:42:47.494Z,74.33
2022-11-23T16:45:16.726Z,80.10
2022-11-23T16:47:55.280Z,86.53
2022-11-23T16:50:25.390Z,84.00
2022-11-23T16:52:54.494Z,78.10
2022-11-23T16:55:23.843Z,86.37
2022-11-23T16:57:52.566Z,77.17
2022-11-23T17:00:23.752Z,81.47
2022-11-23T17:02:54.187Z,81.77
2022-11-23T17:05:24.612Z,83.00
2022-11-23T17:07:53.340Z,78.23
2022-11-23T17:10:22.800Z,77.17
2022-11-23T17:12:54.738Z,89.13
2022-11-23T17:15:25.064Z,75.90
2022-11-23T17:17:58.581Z,86.70
2022-11-23T17:20:27.794Z,113.03
2022-11-23T17:23:00.371Z,105.43
2022-11-23T17:25:30.473Z,107.60
2022-11-23T17:28:01.369Z,91.87
2022-11-23T17:30:30.093Z,93.60
2022-11-23T17:33:01.090Z,98.13
2022-11-23T17:35:33.926Z,98.73
2022-11-23T17:38:06.012Z,98.47
2022-11-23T17:40:35.677Z,95.77
2022-11-23T17:43:04.459Z,90.27
2022-11-23T17:45:34.262Z,88.93
2022-11-23T17:48:05.573Z,89.90
2022-11-23T17:50:34.463Z,87.20
2022-11-23T17:53:03.310Z,85.80
2022-11-23T17:55:32.553Z,93.37
2022-11-23T17:58:01.774Z,88.77
2022-11-23T18:00:32.252Z,84.20
2022-11-23T18:03:01.177Z,87.97
2022-11-23T18:05:31.750Z,74.83
2022-11-23T18:08:00.853Z,80.50
2022-11-23T18:10:29.487Z,82.13
2022-11-23T18:12:59.145Z,78.00
2022-11-23T18:15:30.261Z,73.80
2022-11-23T18:18:04.398Z,77.83
2022-11-23T18:20:35.471Z,79.80
2022-11-23T18:23:04.783Z,81.03
2022-11-23T18:25:33.633Z,82.03
2022-11-23T18:28:02.394Z,79.97
2022-11-23T18:30:31.337Z,73.67
2022-11-23T18:32:59.959Z,76.07
2022-11-23T18:35:28.939Z,77.53
2022-11-23T18:37:59.710Z,77.50
2022-11-23T18:40:28.748Z,76.47
2022-11-23T18:42:58.705Z,76.00
2022-11-23T18:45:28.605Z,80.33
2022-11-23T18:47:57.722Z,82.53
2022-11-23T18:50:26.715Z,83.30
2022-11-23T18:52:55.412Z,83.60
2022-11-23T18:55:26.216Z,83.47
2022-11-23T18:57:55.462Z,75.77
2022-11-23T19:00:24.732Z,81.33
2022-11-23T19:02:54.603Z,85.40
2022-11-23T19:05:24.746Z,86.00
2022-11-23T19:07:53.744Z,80.23
2022-11-23T19:10:22.691Z,86.53
2022-11-23T19:12:53.205Z,86.73
2022-11-23T19:15:21.890Z,83.60
2022-11-23T19:17:51.661Z,81.80
2022-11-23T19:20:23.660Z,83.90
2022-11-23T19:22:52.542Z,87.73
2022-11-23T19:25:22.215Z,90.10
2022-11-23T19:27:53.508Z,87.37
2022-11-23T19:30:22.487Z,89.90
2022-11-23T19:32:51.338Z,85.50
2022-11-23T19:35:19.925Z,88.33
2022-11-23T19:37:49.787Z,84.33
2022-11-23T19:40:18.669Z,87.47
2022-11-23T19:42:47.297Z,98.70
2022-11-23T19:45:17.739Z,87.93
2022-11-23T19:47:46.357Z,85.47
2022-11-23T19:50:15.111Z,80.90
2022-11-23T19:53:10.518Z,87.20
2022-11-23T19:55:32.881Z,84.33
2022-11-23T19:58:01.775Z,80.33
2022-11-23T20:00:32.754Z,88.70
2022-11-23T20:03:02.523Z,90.37
2022-11-23T20:05:31.260Z,90.23
2022-11-23T20:08:01.880Z,90.63
2022-11-23T20:10:30.614Z,93.03
2022-11-23T20:12:59.394Z,85.17
2022-11-23T20:15:28.221Z,94.07
2022-11-23T20:17:58.988Z,88.23
2022-11-23T20:20:31.983Z,86.23
2022-11-23T20:23:00.887Z,85.83
2022-11-23T20:25:30.043Z,89.47
2022-11-23T20:27:58.943Z,87.87
2022-11-23T20:30:27.772Z,85.57
2022-11-23T20:32:56.392Z,90.20
2022-11-23T20:35:26.672Z,88.43
2022-11-23T20:37:55.362Z,92.43
2022-11-23T20:40:24.178Z,93.00
2022-11-23T20:42:52.894Z,89.63
2022-11-23T20:45:21.722Z,83.00
2022-11-23T20:47:53.955Z,79.07
2022-11-23T20:50:25.393Z,88.00
2022-11-23T20:53:00.787Z,83.87
2022-11-23T20:55:32.077Z,84.77
2022-11-23T20:58:00.699Z,92.07
2022-11-23T21:00:29.872Z,89.33
2022-11-23T21:02:58.562Z,97.17
2022-11-23T21:05:27.871Z,89.27
2022-11-23T21:07:57.824Z,98.30
2022-11-23T21:10:44.038Z,98.90
2022-11-23T21:13:48.648Z,99.70
2022-11-23T21:16:18.203Z,101.67
2022-11-23T21:18:47.016Z,99.07
2022-11-23T21:21:15.908Z,96.40
2022-11-23T21:23:50.948Z,104.00
2022-11-23T21:26:21.603Z,100.77
2022-11-23T21:28:50.153Z,98.83
2022-11-23T21:31:19.081Z,108.20
2022-11-23T21:33:52.382Z,103.13
2022-11-23T21:36:23.788Z,98.17
2022-11-23T21:38:54.264Z,102.77
2022-11-23T21:41:23.282Z,101.27
2022-11-23T21:43:55.424Z,110.63
2022-11-23T21:46:24.714Z,102.00
2022-11-23T21:48:55.135Z,100.33
2022-11-23T21:51:26.813Z,95.63
2022-11-23T21:53:57.706Z,110.33
2022-11-23T21:56:28.163Z,119.17
2022-11-23T21:58:57.447Z,115.07
2022-11-23T22:01:29.546Z,107.50
2022-11-23T22:04:01.557Z,112.73
2022-11-23T22:06:30.524Z,105.90
2022-11-23T22:09:00.985Z,120.03
2022-11-23T22:11:31.642Z,119.13
2022-11-23T22:14:02.195Z,119.33
2022-11-23T22:16:33.089Z,114.07
2022-11-23T22:19:02.450Z,112.57
2022-11-23T22:21:36.867Z,118.33
2022-11-23T22:24:09.095Z,111.47
2022-11-23T22:26:38.046Z,112.57
2022-11-23T22:29:07.265Z,119.67
2022-11-23T22:31:36.982Z,122.30
2022-11-23T22:34:08.778Z,124.97
2022-11-23T22:36:37.598Z,126.23
2022-11-23T22:39:09.054Z,122.03
2022-11-23T22:41:38.999Z,120.00
2022-11-23T22:44:10.255Z,122.40
2022-11-23T22:46:40.288Z,135.27
2022-11-23T22:49:09.116Z,130.20
2022-11-23T22:51:37.983Z,129.90
2022-11-23T22:54:08.472Z,120.37
2022-11-23T22:56:39.141Z,115.67
2022-11-23T22:59:08.245Z,125.57
2022-11-23T23:01:36.842Z,119.10
2022-11-23T23:04:05.754Z,117.13
2022-11-23T23:06:35.956Z,105.10
2022-11-23T23:09:09.337Z,113.90
2022-11-23T23:11:39.142Z,117.43
2022-11-23T23:14:11.315Z,130.70
2022-11-23T23:16:40.410Z,123.10
2022-11-23T23:19:09.655Z,115.33
2022-11-23T23:21:38.531Z,117.27
2022-11-23T23:24:10.587Z,114.90
2022-11-23T23:26:39.580Z,109.70
2022-11-23T23:29:08.312Z,123.90
2022-11-23T23:31:37.964Z,118.43
2022-11-23T23:34:07.167Z,113.60
2022-11-23T23:36:37.561Z,122.30
2022-11-23T23:39:08.710Z,121.67
2022-11-23T23:41:37.318Z,126.87
2022-11-23T23:44:06.430Z,127.80
2022-11-23T23:46:35.232Z,116.80
2022-11-23T23:49:04.341Z,120.93
2022-11-23T23:51:33.062Z,126.83
2022-11-23T23:54:02.007Z,123.60
2022-11-23T23:56:32.343Z,121.70
2022-11-23T23:59:01.246Z,122.80
